Alta Vista, IA

6:06 PM CDT on October 22, 2019 (GMT -0500)
Alta Vista | | Change Station
Active Advisory: Wind Advisory

Elev 1168 ft 43.20 °N, 92.41 °W | Updated 46 seconds ago

Partly Cloudy
Partly Cloudy
46.8 °F
Feels Like 44 °F
N
5.8
Wind Variable Wind from SE
Gusts 13.6 mph

Today
High -- | Low -- °F
--% Chance of Precip.
Yesterday
High -- | Low -- °F
Precip. -- in
Pressure 29.72 in
Visibility 10.0 miles
Clouds Few 5000 ft
Windchill 44 °F
Dew Point 32 °F
Humidity 56%
Rainfall 0.09 in
Snow Depth Not available.
7:31 AM 6:15 PM
Waning Crescent, 34% visible
METAR KCCY 222255Z AUTO 28016G28KT 10SM FEW050 08/M02 A2972 RMK AO2
Pressure 29.72 in
Visibility 10.0 miles
Clouds Few 5000 ft
Windchill 44 °F
Dew Point 32 °F
Humidity 56%
Rainfall 0.09 in
Snow Depth Not available.
7:31 AM 6:15 PM
Waning Crescent, 34% visible
METAR KCCY 222255Z AUTO 28016G28KT 10SM FEW050 08/M02 A2972 RMK AO2

Get Your Daily Forecast Email!

Thanks for signing up!

Be on the lookout for a verification email in your inbox.

You'll start receiving severe weather alerts in your inbox..

×

10-Day Weather Forecast

Almanac

Astronomy

Oct. 22, 2019 Rise Set
Actual Time
Civil Twilight
Nautical Twilight
Astronomical Twilight
Moon
Length of Visible Light
Length of Day
Tomorrow will be .
, % of the Moon is Illuminated

Today's Extremes

State Highs State Lows

Community

WunderPhotos

Category 6

Welcome to Category 6. This is the collective home for Weather Underground's featured writeups by Dr. Jeff Masters (right), Bob Henson (left), Chris Burt, and other regular contributors.

Nearby

Air Quality

  Air Quality AQ Index Pollutant
Not available.

Snow Depth

Station Depth Elevation

Earthquake Activity

City Distance Mag. Time & Date
Minimum magnitude displayed is 2.5.

Coastal Water Temperatures

Place Temperature

Stations

Nearby Weather Stations

Station Location Temp. Windchill Dew Point Humidity Wind Precip. Elev Updated Type
                   

Watches & Warnings

Wind Advisory
Issued: 2:51 PM CDT Oct. 22, 2019 – National Weather Service

... Wind Advisory remains in effect until 7 PM CDT this evening...

* what... west winds 20 to 30 mph with gusts up to 45 mph.

* Where... portions of north central and northeast Iowa, and
southeast Minnesota.

* When... until 7 PM CDT this evening.

* Impacts... gusty winds could blow around unsecured objects,
including Holiday decorations. Tree limbs could be blown down
and a few power outages may result.

Precautionary/preparedness actions...

Use extra caution when driving, especially if operating a high
profile vehicle. Secure outdoor objects.



Boyne